首页
METAR-TAF:

METAR-TAF

机场 :

Karl Stefan Memorial Airport

诺福克, 內布拉斯加州, 美国

纬度: 41-58-50N, 经度: 097-26-13W, 海拔: 479米

当前天气观测

该预报发布于20分钟前的07:56 UTC
静风
温度 19°C
湿度 94%
气压 1008 hPa
能見度: 16.1公里
天空无云

METAR: KOFK 130756Z AUTO 00000KT 10SM CLR 19/18 A2976 RMK AO2 SLP061 T01940183

时间: 03:16 (08:16 UTC)

预报

该预报发布于2小时和56分钟前的05:20 UTC
预报有效从13日的 06点(UTC)到 14日的 06点(UTC)
风速3节,风向西南
能見度: 10公里
少量云层高于25000英尺
从 13日的 0900点(UTC)
风速9节,风向东北
能見度: 10公里
少量云层高于25000英尺
从 13日的 1600点(UTC)
风速14节,风向北转东北
能見度: 10公里
少量云层高于25000英尺
从 13日的 2000点(UTC)
风速13节,风向北转东北,有时为20节阵风
能見度: 10公里
少量云层高于25000英尺

TAF: KOFK 130520Z 1306/1406 23003KT P6SM FEW250 FM130900 04009KT P6SM FEW250 FM131600 03014KT P6SM FEW250 FM132000 03013G20KT P6SM FEW250

超过4000个机场的气象观测和天气预报(METAR&TAF报告)。

可查询的气象台以黄色和红色小点在地图上表示。

将鼠标移到小点上方,可查看气象台名称。

然后点击查看天气观测和预报。

如需切换地图:点击带黑十字的绿色按钮放大地图;点击带横线的绿色按钮缩小地图;或者点击绿色箭头查看邻近地区的地图。


METAR-TAF: